Saint Louis, Missouri
Traffic Map
Current Weather Conditions
Saint Louis, Missouri
Overcast
Overcast
19°
Feels Like: 19°
Wind Chill: 19° Ceiling: 4400
Heat Index: 19° Visibility: 10mi
Dew Point: 18° Wind: 7mph
Humidity: 93% Direction: 120° (ESE)
Pressure: 29.88in Gusts: 0mph
Raw Report DataKCPS 021153Z 12006KT 10SM FEW036 BKN044 OVC065 19/18 A2988 RMK AO2 RAB17E26 SLP115 P0029 60029 70076 T01940183 10222 20194 50013
Traffic Incident Summary
Active as of:
Severity:
Category:
InformationThere was an issue retrieving the traffic information for this location. Please try a different location or try again shortly.
Advertisements
Track Severe Weather on mobile